sensor_id;sensor_type;location;lat;lon;timestamp;pressure;altitude;pressure_sealevel;temperature;humidity
19860;BME280;2395;50.738;7.122;2022-09-16T00:01:56;100564.34;;;15.11;74.71
19860;BME280;2395;50.738;7.122;2022-09-16T00:04:23;100566.59;;;15.01;74.35
19860;BME280;2395;50.738;7.122;2022-09-16T00:06:50;100568.41;;;14.99;75.15
19860;BME280;2395;50.738;7.122;2022-09-16T00:09:16;100575.91;;;15.04;75.65
19860;BME280;2395;50.738;7.122;2022-09-16T00:11:43;100575.66;;;15.08;75.12
19860;BME280;2395;50.738;7.122;2022-09-16T00:14:10;100573.25;;;15.05;75.04
19860;BME280;2395;50.738;7.122;2022-09-16T00:16:38;100570.75;;;15.04;75.32
19860;BME280;2395;50.738;7.122;2022-09-16T00:19:05;100575.84;;;15.05;74.94
19860;BME280;2395;50.738;7.122;2022-09-16T00:21:32;100574.09;;;15.06;74.65
19860;BME280;2395;50.738;7.122;2022-09-16T00:23:59;100574.09;;;15.06;74.62
19860;BME280;2395;50.738;7.122;2022-09-16T00:26:27;100572.59;;;15.02;74.03
19860;BME280;2395;50.738;7.122;2022-09-16T00:28:54;100570.94;;;15.01;74.96
19860;BME280;2395;50.738;7.122;2022-09-16T00:31:21;100567.59;;;14.99;74.60
19860;BME280;2395;50.738;7.122;2022-09-16T00:33:49;100572.78;;;14.99;74.35
19860;BME280;2395;50.738;7.122;2022-09-16T00:36:18;100567.94;;;14.93;74.67
19860;BME280;2395;50.738;7.122;2022-09-16T00:38:49;100561.28;;;14.89;74.96
19860;BME280;2395;50.738;7.122;2022-09-16T00:41:20;100569.03;;;14.89;74.47
19860;BME280;2395;50.738;7.122;2022-09-16T00:43:52;100570.84;;;14.87;74.59
19860;BME280;2395;50.738;7.122;2022-09-16T00:46:26;100566.84;;;14.81;74.03
19860;BME280;2395;50.738;7.122;2022-09-16T00:49:02;100565.28;;;14.79;74.80
19860;BME280;2395;50.738;7.122;2022-09-16T00:51:30;100568.28;;;14.71;75.84
19860;BME280;2395;50.738;7.122;2022-09-16T00:54:01;100568.38;;;14.70;74.79
19860;BME280;2395;50.738;7.122;2022-09-16T00:56:36;100574.44;;;14.69;75.78
19860;BME280;2395;50.738;7.122;2022-09-16T00:59:08;100572.78;;;14.68;75.61
19860;BME280;2395;50.738;7.122;2022-09-16T01:01:37;100566.84;;;14.66;76.06
19860;BME280;2395;50.738;7.122;2022-09-16T01:04:15;100571.50;;;14.59;76.12
19860;BME280;2395;50.738;7.122;2022-09-16T01:06:44;100575.19;;;14.55;76.65
19860;BME280;2395;50.738;7.122;2022-09-16T01:09:12;100572.28;;;14.61;76.38
19860;BME280;2395;50.738;7.122;2022-09-16T01:11:39;100570.09;;;14.54;76.44
19860;BME280;2395;50.738;7.122;2022-09-16T01:14:06;100567.50;;;14.54;75.49
19860;BME280;2395;50.738;7.122;2022-09-16T01:17:02;100568.38;;;14.54;75.95
19860;BME280;2395;50.738;7.122;2022-09-16T01:20:02;100572.94;;;14.50;75.83
19860;BME280;2395;50.738;7.122;2022-09-16T01:22:54;100577.38;;;14.48;76.66
19860;BME280;2395;50.738;7.122;2022-09-16T01:25:43;100574.84;;;14.46;77.03
19860;BME280;2395;50.738;7.122;2022-09-16T01:29:03;100576.66;;;14.44;76.68
19860;BME280;2395;50.738;7.122;2022-09-16T01:31:44;100568.91;;;14.44;77.20
19860;BME280;2395;50.738;7.122;2022-09-16T01:34:27;100567.03;;;14.48;76.45
19860;BME280;2395;50.738;7.122;2022-09-16T01:37:05;100575.75;;;14.45;77.28
19860;BME280;2395;50.738;7.122;2022-09-16T01:39:45;100578.28;;;14.47;76.69
19860;BME280;2395;50.738;7.122;2022-09-16T01:42:25;100571.19;;;14.50;77.30
19860;BME280;2395;50.738;7.122;2022-09-16T01:45:04;100577.28;;;14.49;78.33
19860;BME280;2395;50.738;7.122;2022-09-16T01:47:42;100570.00;;;14.40;78.90
19860;BME280;2395;50.738;7.122;2022-09-16T01:50:20;100564.50;;;14.46;77.30
19860;BME280;2395;50.738;7.122;2022-09-16T01:53:02;100563.59;;;14.47;77.46
19860;BME280;2395;50.738;7.122;2022-09-16T01:55:36;100566.84;;;14.35;77.98
19860;BME280;2395;50.738;7.122;2022-09-16T01:58:13;100567.44;;;14.40;78.84
19860;BME280;2395;50.738;7.122;2022-09-16T02:00:45;100557.41;;;14.34;78.00
19860;BME280;2395;50.738;7.122;2022-09-16T02:03:22;100563.75;;;14.29;78.48
19860;BME280;2395;50.738;7.122;2022-09-16T02:05:53;100568.22;;;14.25;78.37
19860;BME280;2395;50.738;7.122;2022-09-16T02:08:30;100565.88;;;14.21;79.02
19860;BME280;2395;50.738;7.122;2022-09-16T02:10:59;100565.97;;;14.19;80.53
19860;BME280;2395;50.738;7.122;2022-09-16T02:13:33;100558.25;;;14.19;79.82
19860;BME280;2395;50.738;7.122;2022-09-16T02:16:09;100558.75;;;14.26;80.23
19860;BME280;2395;50.738;7.122;2022-09-16T02:18:42;100556.47;;;14.20;80.58
19860;BME280;2395;50.738;7.122;2022-09-16T02:21:16;100553.47;;;14.12;80.00
19860;BME280;2395;50.738;7.122;2022-09-16T02:23:50;100553.06;;;14.19;80.66
19860;BME280;2395;50.738;7.122;2022-09-16T02:26:25;100553.53;;;14.10;80.15
19860;BME280;2395;50.738;7.122;2022-09-16T02:28:57;100555.34;;;14.08;81.18
19860;BME280;2395;50.738;7.122;2022-09-16T02:31:32;100553.53;;;14.10;82.22
19860;BME280;2395;50.738;7.122;2022-09-16T02:34:08;100557.03;;;14.09;82.60
19860;BME280;2395;50.738;7.122;2022-09-16T02:36:39;100554.22;;;14.14;82.72
19860;BME280;2395;50.738;7.122;2022-09-16T02:39:13;100556.00;;;14.13;82.84
19860;BME280;2395;50.738;7.122;2022-09-16T02:41:42;100558.38;;;14.16;82.27
19860;BME280;2395;50.738;7.122;2022-09-16T02:44:10;100557.03;;;14.09;83.01
19860;BME280;2395;50.738;7.122;2022-09-16T02:46:48;100560.97;;;14.16;81.33
19860;BME280;2395;50.738;7.122;2022-09-16T02:49:28;100562.56;;;14.02;82.07
19860;BME280;2395;50.738;7.122;2022-09-16T02:52:12;100561.41;;;14.07;83.74
19860;BME280;2395;50.738;7.122;2022-09-16T02:54:50;100553.53;;;14.10;83.49
19860;BME280;2395;50.738;7.122;2022-09-16T02:57:18;100558.56;;;14.13;83.73
19860;BME280;2395;50.738;7.122;2022-09-16T02:59:46;100556.06;;;14.12;83.47
19860;BME280;2395;50.738;7.122;2022-09-16T03:02:13;100540.41;;;14.15;83.19
19860;BME280;2395;50.738;7.122;2022-09-16T03:04:41;100540.41;;;14.15;83.61
19860;BME280;2395;50.738;7.122;2022-09-16T03:07:10;100540.72;;;14.09;83.57
19860;BME280;2395;50.738;7.122;2022-09-16T03:09:42;100533.59;;;14.14;83.72
19860;BME280;2395;50.738;7.122;2022-09-16T03:12:30;100538.44;;;14.03;84.21
19860;BME280;2395;50.738;7.122;2022-09-16T03:15:27;100540.03;;;14.05;83.98
19860;BME280;2395;50.738;7.122;2022-09-16T03:18:46;100532.38;;;14.04;84.76
19860;BME280;2395;50.738;7.122;2022-09-16T03:21:27;100536.84;;;14.00;84.20
19860;BME280;2395;50.738;7.122;2022-09-16T03:24:07;100534.53;;;13.96;83.77
19860;BME280;2395;50.738;7.122;2022-09-16T03:26:45;100533.00;;;13.92;85.17
19860;BME280;2395;50.738;7.122;2022-09-16T03:29:24;100525.19;;;13.93;84.97
19860;BME280;2395;50.738;7.122;2022-09-16T03:31:59;100537.09;;;13.96;83.52
19860;BME280;2395;50.738;7.122;2022-09-16T03:34:34;100528.69;;;13.92;84.49
19860;BME280;2395;50.738;7.122;2022-09-16T03:37:07;100522.63;;;13.93;83.45
19860;BME280;2395;50.738;7.122;2022-09-16T03:39:35;100532.03;;;13.94;84.43
19860;BME280;2395;50.738;7.122;2022-09-16T03:42:06;100530.19;;;13.96;83.88
19860;BME280;2395;50.738;7.122;2022-09-16T03:44:38;100529.03;;;14.02;83.80
19860;BME280;2395;50.738;7.122;2022-09-16T03:47:07;100520.78;;;13.95;84.40
19860;BME280;2395;50.738;7.122;2022-09-16T03:49:35;100522.91;;;13.87;83.64
19860;BME280;2395;50.738;7.122;2022-09-16T03:52:04;100517.84;;;13.86;83.78
19860;BME280;2395;50.738;7.122;2022-09-16T03:54:32;100518.53;;;13.89;84.39
19860;BME280;2395;50.738;7.122;2022-09-16T03:57:00;100521.44;;;13.83;84.61
19860;BME280;2395;50.738;7.122;2022-09-16T03:59:27;100526.50;;;13.85;84.62
19860;BME280;2395;50.738;7.122;2022-09-16T04:01:54;100533.34;;;13.86;84.44
19860;BME280;2395;50.738;7.122;2022-09-16T04:04:22;100520.66;;;13.81;85.34
19860;BME280;2395;50.738;7.122;2022-09-16T04:06:49;100524.50;;;13.74;84.29
19860;BME280;2395;50.738;7.122;2022-09-16T04:09:17;100523.16;;;13.83;84.45
19860;BME280;2395;50.738;7.122;2022-09-16T04:11:44;100515.66;;;13.78;84.60
19860;BME280;2395;50.738;7.122;2022-09-16T04:18:20;100516.72;;;13.91;83.84
19860;BME280;2395;50.738;7.122;2022-09-16T04:20:47;100521.25;;;13.86;83.47
19860;BME280;2395;50.738;7.122;2022-09-16T04:23:14;100518.53;;;13.89;83.89
19860;BME280;2395;50.738;7.122;2022-09-16T04:25:43;100516.94;;;13.87;84.01
19860;BME280;2395;50.738;7.122;2022-09-16T04:28:09;100518.38;;;13.75;83.69
19860;BME280;2395;50.738;7.122;2022-09-16T04:30:36;100515.59;;;13.80;84.74
19860;BME280;2395;50.738;7.122;2022-09-16T04:33:04;100512.50;;;13.73;83.47
19860;BME280;2395;50.738;7.122;2022-09-16T04:35:30;100518.47;;;13.74;85.18
19860;BME280;2395;50.738;7.122;2022-09-16T04:37:57;100520.81;;;13.78;83.43
19860;BME280;2395;50.738;7.122;2022-09-16T04:40:24;100515.22;;;13.70;84.82
19860;BME280;2395;50.738;7.122;2022-09-16T04:42:52;100512.66;;;13.70;83.77
19860;BME280;2395;50.738;7.122;2022-09-16T04:45:19;100518.88;;;13.66;83.60
19860;BME280;2395;50.738;7.122;2022-09-16T04:47:46;100511.13;;;13.66;83.84
19860;BME280;2395;50.738;7.122;2022-09-16T04:50:13;100510.31;;;13.66;83.20
19860;BME280;2395;50.738;7.122;2022-09-16T04:52:40;100516.66;;;13.76;83.59
19860;BME280;2395;50.738;7.122;2022-09-16T04:55:08;100511.38;;;13.62;83.34
19860;BME280;2395;50.738;7.122;2022-09-16T04:57:35;100514.19;;;13.58;83.91
19860;BME280;2395;50.738;7.122;2022-09-16T05:00:04;100514.34;;;13.55;83.13
19860;BME280;2395;50.738;7.122;2022-09-16T05:02:31;100512.75;;;13.52;83.61
19860;BME280;2395;50.738;7.122;2022-09-16T05:04:58;100525.72;;;13.51;85.10
19860;BME280;2395;50.738;7.122;2022-09-16T05:07:26;100523.13;;;13.51;84.31
19860;BME280;2395;50.738;7.122;2022-09-16T05:09:53;100523.22;;;13.49;83.07
19860;BME280;2395;50.738;7.122;2022-09-16T05:12:21;100524.66;;;13.38;83.89
19860;BME280;2395;50.738;7.122;2022-09-16T05:14:47;100526.03;;;13.45;84.78
19860;BME280;2395;50.738;7.122;2022-09-16T05:17:16;100529.97;;;13.35;83.66
19860;BME280;2395;50.738;7.122;2022-09-16T05:19:43;100526.41;;;13.37;84.83
19860;BME280;2395;50.738;7.122;2022-09-16T05:22:10;100524.41;;;13.42;83.65
19860;BME280;2395;50.738;7.122;2022-09-16T05:24:36;100523.84;;;13.37;84.73
19860;BME280;2395;50.738;7.122;2022-09-16T05:27:03;100532.38;;;13.38;83.79
19860;BME280;2395;50.738;7.122;2022-09-16T05:29:31;100522.97;;;13.37;82.47
19860;BME280;2395;50.738;7.122;2022-09-16T05:31:58;100534.00;;;13.40;83.29
19860;BME280;2395;50.738;7.122;2022-09-16T05:34:27;100529.00;;;13.37;82.91
19860;BME280;2395;50.738;7.122;2022-09-16T05:36:55;100533.28;;;13.37;82.92
19860;BME280;2395;50.738;7.122;2022-09-16T05:39:23;100535.72;;;13.40;82.11
19860;BME280;2395;50.738;7.122;2022-09-16T05:41:53;100532.88;;;13.46;81.09
19860;BME280;2395;50.738;7.122;2022-09-16T05:44:21;100531.25;;;13.43;82.71
19860;BME280;2395;50.738;7.122;2022-09-16T05:46:48;100536.13;;;13.49;82.33
19860;BME280;2395;50.738;7.122;2022-09-16T05:49:15;100529.81;;;13.55;80.96
19860;BME280;2395;50.738;7.122;2022-09-16T05:51:47;100540.88;;;13.57;80.35
19860;BME280;2395;50.738;7.122;2022-09-16T05:54:15;100544.06;;;13.62;79.58
19860;BME280;2395;50.738;7.122;2022-09-16T05:56:44;100531.25;;;13.60;78.95
19860;BME280;2395;50.738;7.122;2022-09-16T05:59:12;100541.25;;;13.66;79.05
19860;BME280;2395;50.738;7.122;2022-09-16T06:01:40;100540.25;;;13.68;78.52
19860;BME280;2395;50.738;7.122;2022-09-16T06:04:12;100542.78;;;13.70;78.59
19860;BME280;2395;50.738;7.122;2022-09-16T06:06:41;100537.84;;;13.66;79.06
19860;BME280;2395;50.738;7.122;2022-09-16T06:09:12;100536.63;;;13.72;78.06
19860;BME280;2395;50.738;7.122;2022-09-16T06:11:43;100528.09;;;13.87;77.48
19860;BME280;2395;50.738;7.122;2022-09-16T06:14:12;100524.91;;;13.82;77.67
19860;BME280;2395;50.738;7.122;2022-09-16T06:16:40;100529.31;;;13.80;76.10
19860;BME280;2395;50.738;7.122;2022-09-16T06:19:10;100529.16;;;13.83;77.20
19860;BME280;2395;50.738;7.122;2022-09-16T06:21:39;100532.94;;;13.93;75.48
19860;BME280;2395;50.738;7.122;2022-09-16T06:24:08;100529.75;;;13.88;76.65
19860;BME280;2395;50.738;7.122;2022-09-16T06:26:39;100537.34;;;13.91;76.71
19860;BME280;2395;50.738;7.122;2022-09-16T06:29:08;100539.53;;;13.82;75.96
19860;BME280;2395;50.738;7.122;2022-09-16T06:31:36;100523.69;;;13.89;75.61
19860;BME280;2395;50.738;7.122;2022-09-16T06:34:04;100531.84;;;13.97;74.93
19860;BME280;2395;50.738;7.122;2022-09-16T06:36:34;100525.72;;;14.00;74.75
19860;BME280;2395;50.738;7.122;2022-09-16T06:39:02;100519.22;;;14.08;76.34
19860;BME280;2395;50.738;7.122;2022-09-16T06:41:33;100529.44;;;14.11;75.03
19860;BME280;2395;50.738;7.122;2022-09-16T06:44:01;100530.41;;;14.09;75.93
19860;BME280;2395;50.738;7.122;2022-09-16T06:46:28;100523.78;;;14.20;73.65
19860;BME280;2395;50.738;7.122;2022-09-16T06:48:57;100530.91;;;14.15;75.03
19860;BME280;2395;50.738;7.122;2022-09-16T06:51:27;100528.28;;;14.17;74.85
19860;BME280;2395;50.738;7.122;2022-09-16T06:54:00;100522.78;;;14.23;75.11
19860;BME280;2395;50.738;7.122;2022-09-16T06:56:27;100520.06;;;14.41;74.26
19860;BME280;2395;50.738;7.122;2022-09-16T06:58:55;100532.59;;;14.32;74.08
19860;BME280;2395;50.738;7.122;2022-09-16T07:01:25;100527.94;;;14.38;73.82
19860;BME280;2395;50.738;7.122;2022-09-16T07:03:54;100529.28;;;14.45;75.11
19860;BME280;2395;50.738;7.122;2022-09-16T07:06:26;100530.03;;;14.47;74.51
19860;BME280;2395;50.738;7.122;2022-09-16T07:08:57;100532.63;;;14.47;74.09
19860;BME280;2395;50.738;7.122;2022-09-16T07:11:25;100534.28;;;14.48;73.88
19860;BME280;2395;50.738;7.122;2022-09-16T07:13:52;100523.28;;;14.45;74.51
19860;BME280;2395;50.738;7.122;2022-09-16T07:16:24;100529.28;;;14.45;74.22
19860;BME280;2395;50.738;7.122;2022-09-16T07:18:55;100527.38;;;14.33;75.00
19860;BME280;2395;50.738;7.122;2022-09-16T07:21:25;100533.75;;;14.26;75.65
19860;BME280;2395;50.738;7.122;2022-09-16T07:23:55;100534.63;;;14.27;74.92
19860;BME280;2395;50.738;7.122;2022-09-16T07:26:25;100542.88;;;14.33;76.00
19860;BME280;2395;50.738;7.122;2022-09-16T07:28:54;100540.44;;;14.30;76.06
19860;BME280;2395;50.738;7.122;2022-09-16T07:31:24;100537.38;;;14.39;75.14
19860;BME280;2395;50.738;7.122;2022-09-16T07:33:54;100537.28;;;14.56;75.56
19860;BME280;2395;50.738;7.122;2022-09-16T07:36:24;100542.38;;;14.73;75.00
19860;BME280;2395;50.738;7.122;2022-09-16T07:38:53;100549.38;;;14.86;74.01
19860;BME280;2395;50.738;7.122;2022-09-16T07:41:24;100532.25;;;14.84;73.86
19860;BME280;2395;50.738;7.122;2022-09-16T07:43:54;100548.72;;;14.83;73.34
19860;BME280;2395;50.738;7.122;2022-09-16T07:46:27;100546.28;;;14.95;73.12
19860;BME280;2395;50.738;7.122;2022-09-16T07:48:55;100547.44;;;14.90;74.05
19860;BME280;2395;50.738;7.122;2022-09-16T07:51:26;100553.28;;;14.78;75.11
19860;BME280;2395;50.738;7.122;2022-09-16T07:53:55;100555.44;;;14.85;74.89
19860;BME280;2395;50.738;7.122;2022-09-16T07:56:25;100559.97;;;14.82;72.99
19860;BME280;2395;50.738;7.122;2022-09-16T07:58:54;100554.34;;;14.74;74.40
19860;BME280;2395;50.738;7.122;2022-09-16T08:01:24;100555.59;;;14.98;73.43
19860;BME280;2395;50.738;7.122;2022-09-16T08:03:51;100561.50;;;15.00;73.19
19860;BME280;2395;50.738;7.122;2022-09-16T08:06:21;100563.84;;;15.04;72.87
19860;BME280;2395;50.738;7.122;2022-09-16T08:08:52;100561.03;;;15.23;71.62
19860;BME280;2395;50.738;7.122;2022-09-16T08:11:21;100557.91;;;15.47;70.89
19860;BME280;2395;50.738;7.122;2022-09-16T08:13:48;100561.13;;;15.37;69.79
19860;BME280;2395;50.738;7.122;2022-09-16T08:16:19;100567.06;;;15.39;69.62
19860;BME280;2395;50.738;7.122;2022-09-16T08:18:50;100567.88;;;15.39;70.90
19860;BME280;2395;50.738;7.122;2022-09-16T08:21:22;100564.84;;;15.46;68.97
19860;BME280;2395;50.738;7.122;2022-09-16T08:23:49;100578.38;;;15.51;70.12
19860;BME280;2395;50.738;7.122;2022-09-16T08:26:18;100580.38;;;15.76;68.61
19860;BME280;2395;50.738;7.122;2022-09-16T08:28:47;100578.00;;;15.57;68.90
19860;BME280;2395;50.738;7.122;2022-09-16T08:31:16;100577.56;;;15.79;68.75
19860;BME280;2395;50.738;7.122;2022-09-16T08:33:43;100574.91;;;15.94;68.55
19860;BME280;2395;50.738;7.122;2022-09-16T08:36:16;100579.91;;;15.97;68.16
19860;BME280;2395;50.738;7.122;2022-09-16T08:38:45;100576.22;;;15.87;68.92
19860;BME280;2395;50.738;7.122;2022-09-16T08:41:30;100582.69;;;15.80;68.86
19860;BME280;2395;50.738;7.122;2022-09-16T08:44:10;100571.03;;;15.87;69.57
19860;BME280;2395;50.738;7.122;2022-09-16T08:46:51;100581.28;;;15.89;69.44
19860;BME280;2395;50.738;7.122;2022-09-16T08:49:29;100581.56;;;15.70;69.58
19860;BME280;2395;50.738;7.122;2022-09-16T08:52:03;100585.78;;;15.71;69.48
19860;BME280;2395;50.738;7.122;2022-09-16T08:54:40;100586.94;;;15.52;68.91
19860;BME280;2395;50.738;7.122;2022-09-16T08:57:14;100593.53;;;15.57;67.96
19860;BME280;2395;50.738;7.122;2022-09-16T08:59:47;100577.84;;;15.60;69.20
19860;BME280;2395;50.738;7.122;2022-09-16T09:02:37;100594.59;;;15.83;68.43
19860;BME280;2395;50.738;7.122;2022-09-16T09:05:16;100590.66;;;16.05;68.60
19860;BME280;2395;50.738;7.122;2022-09-16T09:08:06;100591.84;;;15.86;68.74
19860;BME280;2395;50.738;7.122;2022-09-16T09:10:43;100597.19;;;15.97;68.68
19860;BME280;2395;50.738;7.122;2022-09-16T09:13:33;100601.91;;;15.90;68.41
19860;BME280;2395;50.738;7.122;2022-09-16T09:16:14;100594.66;;;16.25;67.70
19860;BME280;2395;50.738;7.122;2022-09-16T09:19:00;100595.91;;;15.90;67.41
19860;BME280;2395;50.738;7.122;2022-09-16T09:21:42;100597.63;;;16.32;64.64
19860;BME280;2395;50.738;7.122;2022-09-16T09:24:40;100604.00;;;16.41;63.61
19860;BME280;2395;50.738;7.122;2022-09-16T09:27:21;100586.25;;;16.49;62.69
19860;BME280;2395;50.738;7.122;2022-09-16T09:30:12;100597.59;;;16.46;62.51
19860;BME280;2395;50.738;7.122;2022-09-16T09:32:56;100600.44;;;16.70;62.14
19860;BME280;2395;50.738;7.122;2022-09-16T09:35:46;100595.81;;;16.61;61.96
19860;BME280;2395;50.738;7.122;2022-09-16T09:38:38;100590.31;;;16.93;61.68
19860;BME280;2395;50.738;7.122;2022-09-16T09:41:19;100583.53;;;16.91;59.49
19860;BME280;2395;50.738;7.122;2022-09-16T09:43:56;100578.59;;;16.74;60.28
19860;BME280;2395;50.738;7.122;2022-09-16T09:46:34;100584.75;;;16.59;60.16
19860;BME280;2395;50.738;7.122;2022-09-16T09:49:12;100574.47;;;16.57;61.12
19860;BME280;2395;50.738;7.122;2022-09-16T09:51:44;100570.13;;;16.58;60.51
19860;BME280;2395;50.738;7.122;2022-09-16T09:54:25;100577.69;;;16.75;59.77
19860;BME280;2395;50.738;7.122;2022-09-16T09:57:00;100571.91;;;16.84;59.54
19860;BME280;2395;50.738;7.122;2022-09-16T09:59:32;100568.63;;;17.20;58.40
19860;BME280;2395;50.738;7.122;2022-09-16T10:02:13;100574.44;;;17.50;58.77
19860;BME280;2395;50.738;7.122;2022-09-16T10:04:41;100588.72;;;17.31;58.07
19860;BME280;2395;50.738;7.122;2022-09-16T10:07:10;100571.44;;;17.17;59.46
19860;BME280;2395;50.738;7.122;2022-09-16T10:09:47;100570.09;;;17.51;59.02
19860;BME280;2395;50.738;7.122;2022-09-16T10:12:29;100575.69;;;17.57;57.87
19860;BME280;2395;50.738;7.122;2022-09-16T10:14:57;100572.75;;;17.37;57.86
19860;BME280;2395;50.738;7.122;2022-09-16T10:17:26;100576.59;;;17.44;57.75
19860;BME280;2395;50.738;7.122;2022-09-16T10:19:59;100570.88;;;17.13;59.08
19860;BME280;2395;50.738;7.122;2022-09-16T10:22:31;100574.09;;;16.90;58.46
19860;BME280;2395;50.738;7.122;2022-09-16T10:25:00;100571.50;;;16.90;59.25
19860;BME280;2395;50.738;7.122;2022-09-16T10:27:33;100575.09;;;16.61;59.00
19860;BME280;2395;50.738;7.122;2022-09-16T10:30:10;100575.03;;;16.89;59.60
19860;BME280;2395;50.738;7.122;2022-09-16T10:32:47;100571.72;;;16.87;59.92
19860;BME280;2395;50.738;7.122;2022-09-16T10:35:20;100571.56;;;16.76;60.59
19860;BME280;2395;50.738;7.122;2022-09-16T10:37:52;100579.91;;;16.67;59.86
19860;BME280;2395;50.738;7.122;2022-09-16T10:40:20;100580.50;;;16.84;59.28
19860;BME280;2395;50.738;7.122;2022-09-16T10:42:52;100565.84;;;17.23;58.08
19860;BME280;2395;50.738;7.122;2022-09-16T10:45:25;100560.84;;;17.59;56.51
19860;BME280;2395;50.738;7.122;2022-09-16T10:47:57;100566.97;;;17.58;57.07
19860;BME280;2395;50.738;7.122;2022-09-16T10:50:25;100566.34;;;17.42;57.47
19860;BME280;2395;50.738;7.122;2022-09-16T10:52:53;100555.00;;;17.05;59.45
19860;BME280;2395;50.738;7.122;2022-09-16T10:55:26;100557.44;;;17.46;59.80
19860;BME280;2395;50.738;7.122;2022-09-16T10:58:07;100560.13;;;17.57;56.84
19860;BME280;2395;50.738;7.122;2022-09-16T11:00:46;100557.56;;;17.82;56.35
19860;BME280;2395;50.738;7.122;2022-09-16T11:03:48;100561.09;;;17.69;56.63
19860;BME280;2395;50.738;7.122;2022-09-16T11:06:37;100561.00;;;17.95;55.88
19860;BME280;2395;50.738;7.122;2022-09-16T11:09:16;100549.69;;;17.96;54.84
19860;BME280;2395;50.738;7.122;2022-09-16T11:12:16;100548.41;;;17.89;56.19
19860;BME280;2395;50.738;7.122;2022-09-16T11:15:02;100554.13;;;17.69;56.43
19860;BME280;2395;50.738;7.122;2022-09-16T11:17:50;100558.06;;;17.75;55.49
19860;BME280;2395;50.738;7.122;2022-09-16T11:21:00;100537.84;;;17.92;53.84
19860;BME280;2395;50.738;7.122;2022-09-16T11:23:53;100548.81;;;18.45;51.56
19860;BME280;2395;50.738;7.122;2022-09-16T11:26:35;100538.03;;;18.62;50.51
19860;BME280;2395;50.738;7.122;2022-09-16T11:29:21;100539.47;;;18.18;51.12
19860;BME280;2395;50.738;7.122;2022-09-16T11:31:59;100535.84;;;18.33;49.80
19860;BME280;2395;50.738;7.122;2022-09-16T11:34:53;100533.56;;;17.91;51.44
19860;BME280;2395;50.738;7.122;2022-09-16T11:37:28;100550.09;;;17.65;52.75
19860;BME280;2395;50.738;7.122;2022-09-16T11:40:16;100537.00;;;18.04;51.62
19860;BME280;2395;50.738;7.122;2022-09-16T11:42:57;100529.19;;;18.16;52.16
19860;BME280;2395;50.738;7.122;2022-09-16T11:45:44;100538.50;;;18.56;52.44
19860;BME280;2395;50.738;7.122;2022-09-16T11:48:40;100525.03;;;18.14;52.26
19860;BME280;2395;50.738;7.122;2022-09-16T11:51:37;100532.81;;;18.75;50.02
19860;BME280;2395;50.738;7.122;2022-09-16T11:54:37;100540.38;;;18.78;50.00
19860;BME280;2395;50.738;7.122;2022-09-16T11:57:15;100522.63;;;18.72;49.92
19860;BME280;2395;50.738;7.122;2022-09-16T11:59:51;100523.72;;;18.57;49.72
19860;BME280;2395;50.738;7.122;2022-09-16T12:02:26;100513.34;;;19.03;50.42
19860;BME280;2395;50.738;7.122;2022-09-16T12:05:01;100507.97;;;18.94;48.35
19860;BME280;2395;50.738;7.122;2022-09-16T12:07:36;100531.78;;;19.24;47.64
19860;BME280;2395;50.738;7.122;2022-09-16T12:10:19;100541.16;;;18.90;49.00
19860;BME280;2395;50.738;7.122;2022-09-16T12:12:52;100513.44;;;19.25;48.40
19860;BME280;2395;50.738;7.122;2022-09-16T12:15:26;100508.91;;;19.62;47.62
19860;BME280;2395;50.738;7.122;2022-09-16T12:17:58;100512.63;;;19.81;47.72
19860;BME280;2395;50.738;7.122;2022-09-16T12:20:32;100518.84;;;19.46;46.95
19860;BME280;2395;50.738;7.122;2022-09-16T12:23:08;100518.84;;;19.11;47.25
19860;BME280;2395;50.738;7.122;2022-09-16T12:25:43;100512.16;;;18.61;49.53
19860;BME280;2395;50.738;7.122;2022-09-16T12:28:15;100533.38;;;17.94;50.66
19860;BME280;2395;50.738;7.122;2022-09-16T12:30:52;100540.44;;;17.28;52.92
19860;BME280;2395;50.738;7.122;2022-09-16T12:33:28;100568.78;;;16.79;58.40
19860;BME280;2395;50.738;7.122;2022-09-16T12:36:04;100581.03;;;16.07;62.72
19860;BME280;2395;50.738;7.122;2022-09-16T12:38:33;100579.31;;;15.20;64.22
19860;BME280;2395;50.738;7.122;2022-09-16T12:41:27;100579.47;;;14.87;66.42
19860;BME280;2395;50.738;7.122;2022-09-16T12:47:29;100595.38;;;14.80;69.89
19860;BME280;2395;50.738;7.122;2022-09-16T12:50:44;100608.63;;;14.58;72.45
19860;BME280;2395;50.738;7.122;2022-09-16T12:53:44;100610.22;;;14.29;75.40
19860;BME280;2395;50.738;7.122;2022-09-16T12:56:35;100626.72;;;14.42;77.22
19860;BME280;2395;50.738;7.122;2022-09-16T12:59:45;100624.81;;;14.45;77.34
19860;BME280;2395;50.738;7.122;2022-09-16T13:02:19;100620.09;;;14.53;77.83
19860;BME280;2395;50.738;7.122;2022-09-16T13:04:51;100622.66;;;14.38;78.45
19860;BME280;2395;50.738;7.122;2022-09-16T13:07:24;100628.09;;;14.49;77.57
19860;BME280;2395;50.738;7.122;2022-09-16T13:10:02;100629.09;;;14.61;77.96
19860;BME280;2395;50.738;7.122;2022-09-16T13:12:31;100632.59;;;14.76;78.91
19860;BME280;2395;50.738;7.122;2022-09-16T13:15:02;100639.28;;;14.95;77.32
19860;BME280;2395;50.738;7.122;2022-09-16T13:17:36;100634.13;;;15.11;76.24
19860;BME280;2395;50.738;7.122;2022-09-16T13:20:11;100637.13;;;14.88;76.01
19860;BME280;2395;50.738;7.122;2022-09-16T13:22:46;100633.94;;;14.98;73.96
19860;BME280;2395;50.738;7.122;2022-09-16T13:25:28;100651.34;;;14.79;75.50
19860;BME280;2395;50.738;7.122;2022-09-16T13:28:01;100659.66;;;14.04;78.08
19860;BME280;2395;50.738;7.122;2022-09-16T13:30:34;100666.19;;;13.42;81.13
19860;BME280;2395;50.738;7.122;2022-09-16T13:33:25;100650.22;;;13.53;82.29
19860;BME280;2395;50.738;7.122;2022-09-16T13:36:16;100650.59;;;13.62;81.96
19860;BME280;2395;50.738;7.122;2022-09-16T13:38:56;100639.69;;;13.57;81.56
19860;BME280;2395;50.738;7.122;2022-09-16T13:41:37;100643.59;;;13.30;80.67
19860;BME280;2395;50.738;7.122;2022-09-16T13:44:28;100650.44;;;13.31;80.85
19860;BME280;2395;50.738;7.122;2022-09-16T13:47:14;100635.47;;;13.21;78.51